createdAt,value
2018-01-18T00:00:30.732Z,37.20
2018-01-18T00:02:58.240Z,36.70
2018-01-18T00:05:26.523Z,36.90
2018-01-18T00:07:54.799Z,36.10
2018-01-18T00:10:23.076Z,36.80
2018-01-18T00:12:51.348Z,36.20
2018-01-18T00:15:19.630Z,36.20
2018-01-18T00:17:47.909Z,36.40
2018-01-18T00:20:16.199Z,36.20
2018-01-18T00:22:43.700Z,36.40
2018-01-18T00:25:11.230Z,36.30
2018-01-18T00:27:38.741Z,36.70
2018-01-18T00:30:06.247Z,37.70
2018-01-18T00:32:33.777Z,36.90
2018-01-18T00:35:02.058Z,36.80
2018-01-18T00:37:30.350Z,36.70
2018-01-18T00:39:57.859Z,36.70
2018-01-18T00:42:25.387Z,36.40
2018-01-18T00:44:52.887Z,37.30
2018-01-18T00:47:20.416Z,36.90
2018-01-18T00:49:48.184Z,36.90
2018-01-18T00:52:15.948Z,37.20
2018-01-18T00:54:43.478Z,36.70
2018-01-18T00:57:11.032Z,37.10
2018-01-18T00:59:39.303Z,37.30
2018-01-18T01:02:07.661Z,37.40
2018-01-18T01:04:35.169Z,37.30
2018-01-18T01:07:02.762Z,36.80
2018-01-18T01:09:30.264Z,37.60
2018-01-18T01:11:58.548Z,37.30
2018-01-18T01:14:26.055Z,38.10
2018-01-18T01:16:53.574Z,38.40
2018-01-18T01:19:21.075Z,37.20
2018-01-18T01:21:48.814Z,37.60
2018-01-18T01:24:16.323Z,37.50
2018-01-18T01:26:43.984Z,37.50
2018-01-18T01:29:11.512Z,37.60
2018-01-18T01:31:39.012Z,38.20
2018-01-18T01:34:06.536Z,38.10
2018-01-18T01:36:34.052Z,37.70
2018-01-18T01:39:02.345Z,38.70
2018-01-18T01:41:29.868Z,38.10
2018-01-18T01:43:57.528Z,37.90
2018-01-18T01:46:25.035Z,37.80
2018-01-18T01:48:52.563Z,39.40
2018-01-18T01:51:20.829Z,38.80
2018-01-18T01:53:48.363Z,38.20
2018-01-18T01:56:15.876Z,38.80
2018-01-18T01:58:43.454Z,38.60
2018-01-18T02:01:11.051Z,38.20
2018-01-18T02:03:38.565Z,38.20
2018-01-18T02:06:06.080Z,38.20
2018-01-18T02:08:33.580Z,38.20
2018-01-18T02:11:01.104Z,39.40
2018-01-18T02:13:28.608Z,38.30
2018-01-18T02:15:56.119Z,37.40
2018-01-18T02:18:23.619Z,38.60
2018-01-18T02:20:51.135Z,38.70
2018-01-18T02:23:18.646Z,37.90
2018-01-18T02:25:46.179Z,38.00
2018-01-18T02:28:14.453Z,38.70
2018-01-18T02:30:42.748Z,38.70
2018-01-18T02:33:10.251Z,38.80
2018-01-18T02:35:37.783Z,38.70
2018-01-18T02:38:05.287Z,38.80
2018-01-18T02:40:32.800Z,38.60
2018-01-18T02:43:00.303Z,37.90
2018-01-18T02:45:27.815Z,38.80
2018-01-18T02:47:55.326Z,38.80
2018-01-18T02:50:22.842Z,38.90
2018-01-18T02:52:50.347Z,38.90
2018-01-18T02:55:17.847Z,38.40
2018-01-18T02:57:46.139Z,39.30
2018-01-18T03:00:13.643Z,39.20
2018-01-18T03:02:41.168Z,39.50
2018-01-18T03:05:08.667Z,39.10
2018-01-18T03:07:36.187Z,39.60
2018-01-18T03:10:03.697Z,39.70
2018-01-18T03:12:31.987Z,39.70
2018-01-18T03:15:00.265Z,39.30
2018-01-18T03:17:28.551Z,39.10
2018-01-18T03:19:56.052Z,39.60
2018-01-18T03:22:23.697Z,39.10
2018-01-18T03:24:51.223Z,40.50
2018-01-18T03:27:19.516Z,40.30
2018-01-18T03:29:47.024Z,40.30
2018-01-18T03:32:14.543Z,40.00
2018-01-18T03:34:42.055Z,39.90
2018-01-18T03:37:09.577Z,40.00
2018-01-18T03:39:37.088Z,39.70
2018-01-18T03:42:05.378Z,39.70
2018-01-18T03:44:33.648Z,39.80
2018-01-18T03:47:01.945Z,39.80
2018-01-18T03:49:29.456Z,40.10
2018-01-18T03:51:56.956Z,39.80
2018-01-18T03:54:25.261Z,39.30
2018-01-18T03:56:52.758Z,40.00
2018-01-18T03:59:20.281Z,39.30
2018-01-18T04:01:47.781Z,39.00
2018-01-18T04:04:15.298Z,39.40
2018-01-18T04:06:42.811Z,40.00
2018-01-18T04:09:10.339Z,39.70
2018-01-18T04:11:37.843Z,39.70
2018-01-18T04:14:06.127Z,39.50
2018-01-18T04:16:34.400Z,40.00
2018-01-18T04:19:02.693Z,39.90
2018-01-18T04:21:30.199Z,39.70
2018-01-18T04:23:57.725Z,39.80
2018-01-18T04:26:25.244Z,39.80
2018-01-18T04:28:53.531Z,40.90
2018-01-18T04:31:21.814Z,39.30
2018-01-18T04:33:50.105Z,40.90
2018-01-18T04:36:17.602Z,40.70
2018-01-18T04:38:45.128Z,40.50
2018-01-18T04:41:12.633Z,40.70
2018-01-18T04:43:40.155Z,41.10
2018-01-18T04:46:07.671Z,41.10
2018-01-18T04:48:35.218Z,41.40
2018-01-18T04:51:02.735Z,41.10
2018-01-18T04:53:30.237Z,40.90
2018-01-18T04:55:57.753Z,40.50
2018-01-18T04:58:25.255Z,41.30
2018-01-18T05:00:52.799Z,40.70
2018-01-18T05:03:20.313Z,40.40
2018-01-18T05:05:47.830Z,40.80
2018-01-18T05:08:15.327Z,40.50
2018-01-18T05:10:43.613Z,40.70
2018-01-18T05:13:11.126Z,40.80
2018-01-18T05:15:38.649Z,41.40
2018-01-18T05:18:06.152Z,41.40
2018-01-18T05:20:33.664Z,41.20
2018-01-18T05:23:01.173Z,41.30
2018-01-18T05:25:28.695Z,41.30
2018-01-18T05:27:56.196Z,41.80
2018-01-18T05:30:23.705Z,41.30
2018-01-18T05:32:51.219Z,41.60
2018-01-18T05:35:18.739Z,41.70
2018-01-18T05:37:46.254Z,41.50
2018-01-18T05:40:14.572Z,41.70
2018-01-18T05:42:42.095Z,41.60
2018-01-18T05:45:10.376Z,42.30
2018-01-18T05:47:38.667Z,42.10
2018-01-18T05:50:06.168Z,42.70
2018-01-18T05:52:33.683Z,42.50
2018-01-18T05:55:01.179Z,41.30
2018-01-18T05:57:28.717Z,42.50
2018-01-18T05:59:56.228Z,41.70
2018-01-18T06:02:23.886Z,41.30
2018-01-18T06:04:51.385Z,41.80
2018-01-18T06:07:18.910Z,42.10
2018-01-18T06:09:46.406Z,42.10
2018-01-18T06:12:13.930Z,42.80
2018-01-18T06:14:41.427Z,41.90
2018-01-18T06:17:08.954Z,42.00
2018-01-18T06:19:37.237Z,42.20
2018-01-18T06:22:05.512Z,42.10
2018-01-18T06:24:33.798Z,42.10
2018-01-18T06:27:02.075Z,42.30
2018-01-18T06:29:30.363Z,41.90
2018-01-18T06:31:58.631Z,42.00
2018-01-18T06:34:26.919Z,42.00
2018-01-18T06:36:54.420Z,41.80
2018-01-18T06:39:21.937Z,42.10
2018-01-18T06:41:50.204Z,41.70
2018-01-18T06:44:18.490Z,42.20
2018-01-18T06:46:46.759Z,41.90
2018-01-18T06:49:15.051Z,43.00
2018-01-18T06:51:44.679Z,42.80
2018-01-18T06:54:12.231Z,43.10
2018-01-18T06:56:39.751Z,42.90
2018-01-18T06:59:07.291Z,43.00
2018-01-18T07:01:34.795Z,42.80
2018-01-18T07:04:03.084Z,36.30
2018-01-18T07:06:30.631Z,36.50
2018-01-18T07:08:58.905Z,35.80
2018-01-18T07:11:27.194Z,35.10
2018-01-18T07:13:54.709Z,35.10
2018-01-18T07:16:22.257Z,36.60
2018-01-18T07:18:50.527Z,36.90
2018-01-18T07:21:18.080Z,37.10
2018-01-18T07:23:45.586Z,36.50
2018-01-18T07:26:13.876Z,35.40
2018-01-18T07:28:42.155Z,35.20
2018-01-18T07:31:10.443Z,35.90
2018-01-18T07:33:37.989Z,35.70
2018-01-18T07:36:06.277Z,36.90
2018-01-18T07:38:34.558Z,35.90
2018-01-18T07:41:02.207Z,35.60
2018-01-18T07:43:30.493Z,34.00
2018-01-18T07:45:58.767Z,36.80
2018-01-18T07:48:26.301Z,37.30
2018-01-18T07:50:53.821Z,36.70
2018-01-18T07:53:21.365Z,35.50
2018-01-18T07:55:48.877Z,34.00
2018-01-18T07:58:16.442Z,33.30
2018-01-18T08:00:43.976Z,34.50
2018-01-18T08:03:17.259Z,35.60
2018-01-18T08:05:44.800Z,33.60
2018-01-18T08:08:12.429Z,33.60
2018-01-18T08:10:40.776Z,33.00
2018-01-18T08:13:08.313Z,33.20
2018-01-18T08:15:35.934Z,32.10
2018-01-18T08:18:04.380Z,33.70
2018-01-18T08:20:32.048Z,33.50
2018-01-18T08:22:59.670Z,33.50
2018-01-18T08:25:27.208Z,33.00
2018-01-18T08:27:54.757Z,32.70
2018-01-18T08:30:22.279Z,33.20
2018-01-18T08:32:49.845Z,34.20
2018-01-18T08:35:17.397Z,35.80
2018-01-18T08:37:44.918Z,36.50
2018-01-18T08:40:12.461Z,36.70
2018-01-18T08:42:40.747Z,37.20
2018-01-18T08:45:09.077Z,37.50
2018-01-18T08:47:36.588Z,37.90
2018-01-18T08:50:04.884Z,37.50
2018-01-18T08:52:32.401Z,37.50
2018-01-18T08:54:59.928Z,38.10
2018-01-18T08:57:27.427Z,38.20
2018-01-18T08:59:54.943Z,38.20
2018-01-18T09:02:22.471Z,38.30
2018-01-18T09:04:50.745Z,39.00
2018-01-18T09:07:19.034Z,39.40
2018-01-18T09:09:46.555Z,39.70
2018-01-18T09:12:14.108Z,39.70
2018-01-18T09:14:41.613Z,39.60
2018-01-18T09:17:09.177Z,39.60
2018-01-18T09:19:36.698Z,40.20
2018-01-18T09:22:04.219Z,40.40
2018-01-18T09:24:31.717Z,39.70
2018-01-18T09:26:59.228Z,39.80
2018-01-18T09:29:26.732Z,40.00
2018-01-18T09:31:54.829Z,40.60
2018-01-18T09:34:23.103Z,40.00
2018-01-18T09:36:51.401Z,39.90
2018-01-18T09:39:18.905Z,40.30
2018-01-18T09:41:46.407Z,39.70
2018-01-18T09:44:14.717Z,39.80
2018-01-18T09:46:42.235Z,39.80
2018-01-18T09:49:10.529Z,40.10
2018-01-18T09:51:38.037Z,40.30
2018-01-18T09:54:05.570Z,40.40
2018-01-18T09:56:33.075Z,40.30
2018-01-18T09:59:00.615Z,40.40
2018-01-18T10:01:28.136Z,40.70
2018-01-18T10:03:55.671Z,40.50
2018-01-18T10:06:24.032Z,40.10
2018-01-18T10:08:51.576Z,40.50
2018-01-18T10:11:19.111Z,41.50
2018-01-18T10:13:46.653Z,41.20
2018-01-18T10:16:14.171Z,41.30
2018-01-18T10:18:41.691Z,40.90
2018-01-18T10:21:09.212Z,41.10
2018-01-18T10:23:37.516Z,41.30
2018-01-18T10:26:05.018Z,41.10
2018-01-18T10:28:32.529Z,41.20
2018-01-18T10:31:00.083Z,41.30
2018-01-18T10:33:27.605Z,41.30
2018-01-18T10:35:55.139Z,41.40
2018-01-18T10:38:22.644Z,42.00
2018-01-18T10:40:50.943Z,41.50
2018-01-18T10:43:19.224Z,41.40
2018-01-18T10:45:46.757Z,41.90
2018-01-18T10:48:14.281Z,41.20
2018-01-18T10:50:41.817Z,41.40
2018-01-18T10:53:09.354Z,41.00
2018-01-18T10:55:37.652Z,41.30
2018-01-18T10:58:05.193Z,41.50
2018-01-18T11:00:33.480Z,41.20
2018-01-18T11:03:00.986Z,41.20
2018-01-18T11:05:28.537Z,41.10
2018-01-18T11:07:56.052Z,41.30
2018-01-18T11:10:24.328Z,42.00
2018-01-18T11:12:52.611Z,42.30
2018-01-18T11:15:20.141Z,42.20
2018-01-18T11:17:47.675Z,42.40
2018-01-18T11:20:15.187Z,41.10
2018-01-18T11:22:43.489Z,42.40
2018-01-18T11:25:10.996Z,42.20
2018-01-18T11:27:38.528Z,41.20
2018-01-18T11:30:06.153Z,41.80
2018-01-18T11:32:33.693Z,42.20
2018-01-18T11:35:01.983Z,41.60
2018-01-18T11:37:29.512Z,42.70
2018-01-18T11:39:57.044Z,41.60
2018-01-18T11:42:24.586Z,41.50
2018-01-18T11:44:52.108Z,41.20
2018-01-18T11:47:20.396Z,41.90
2018-01-18T11:49:48.672Z,42.10
2018-01-18T11:52:16.191Z,41.90
2018-01-18T11:54:43.713Z,42.30
2018-01-18T11:57:11.219Z,41.90
2018-01-18T11:59:38.744Z,42.20
2018-01-18T12:02:06.264Z,41.20
2018-01-18T12:04:34.563Z,42.70
2018-01-18T12:07:02.080Z,42.40
2018-01-18T12:09:29.619Z,41.90
2018-01-18T12:11:57.144Z,42.60
2018-01-18T12:14:24.671Z,41.20
2018-01-18T12:16:52.185Z,41.70
2018-01-18T12:19:19.718Z,41.40
2018-01-18T12:21:48.008Z,42.10
2018-01-18T12:24:15.542Z,42.00
2018-01-18T12:26:43.833Z,41.90
2018-01-18T12:29:12.126Z,42.30
2018-01-18T12:31:39.643Z,42.20
2018-01-18T12:34:07.171Z,41.80
2018-01-18T12:36:34.670Z,41.60
2018-01-18T12:39:02.943Z,42.00
2018-01-18T12:41:30.468Z,41.90
2018-01-18T12:44:00.140Z,41.90
2018-01-18T12:46:28.437Z,42.40
2018-01-18T12:48:55.952Z,41.90
2018-01-18T12:51:24.245Z,42.30
2018-01-18T12:53:52.522Z,42.30
2018-01-18T12:56:20.814Z,42.00
2018-01-18T12:58:48.341Z,42.20
2018-01-18T13:01:15.861Z,42.90
2018-01-18T13:03:43.421Z,42.90
2018-01-18T13:06:10.958Z,43.00
2018-01-18T13:08:38.509Z,42.00
2018-01-18T13:11:06.031Z,42.60
2018-01-18T13:13:33.550Z,42.70
2018-01-18T13:16:01.059Z,43.20
2018-01-18T13:18:28.580Z,43.20
2018-01-18T13:20:56.101Z,42.60
2018-01-18T13:23:24.382Z,43.00
2018-01-18T13:25:52.661Z,41.60
2018-01-18T13:28:24.578Z,42.70
2018-01-18T13:30:52.106Z,42.70
2018-01-18T13:33:19.645Z,42.70
2018-01-18T13:35:47.916Z,42.50
2018-01-18T13:38:16.218Z,43.20
2018-01-18T13:40:43.735Z,43.10
2018-01-18T13:43:11.295Z,43.00
2018-01-18T13:45:38.806Z,42.40
2018-01-18T13:48:06.335Z,42.10
2018-01-18T13:50:34.607Z,42.90
2018-01-18T13:53:02.879Z,43.40
2018-01-18T13:55:31.170Z,42.70
2018-01-18T13:57:59.444Z,43.00
2018-01-18T14:00:27.745Z,43.00
2018-01-18T14:02:55.261Z,42.70
2018-01-18T14:05:22.787Z,43.00
2018-01-18T14:07:50.292Z,42.50
2018-01-18T14:10:18.606Z,42.50
2018-01-18T14:12:46.129Z,42.60
2018-01-18T14:15:14.445Z,41.70
2018-01-18T14:17:41.967Z,41.40
2018-01-18T14:20:10.265Z,41.60
2018-01-18T14:22:37.763Z,42.20
2018-01-18T14:25:05.288Z,41.70
2018-01-18T14:27:32.844Z,42.10
2018-01-18T14:30:01.104Z,42.10
2018-01-18T14:32:29.392Z,41.60
2018-01-18T14:34:57.670Z,42.20
2018-01-18T14:37:25.958Z,41.50
2018-01-18T14:39:53.488Z,41.40
2018-01-18T14:42:21.005Z,41.30
2018-01-18T14:44:48.507Z,41.50
2018-01-18T14:47:16.807Z,42.30
2018-01-18T14:49:44.328Z,42.30
2018-01-18T14:52:11.861Z,41.90
2018-01-18T14:54:39.388Z,42.20
2018-01-18T14:57:06.921Z,42.20
2018-01-18T14:59:34.427Z,41.80
2018-01-18T15:02:01.964Z,42.60
2018-01-18T15:04:30.238Z,42.10
2018-01-18T15:06:58.521Z,41.60
2018-01-18T15:09:26.818Z,41.90
2018-01-18T15:11:54.323Z,41.80
2018-01-18T15:14:21.847Z,41.70
2018-01-18T15:16:49.375Z,42.30
2018-01-18T15:19:17.685Z,42.40
2018-01-18T15:21:45.205Z,42.50
2018-01-18T15:24:13.519Z,42.30
2018-01-18T15:26:41.023Z,42.10
2018-01-18T15:29:08.557Z,42.30
2018-01-18T15:31:36.066Z,42.50
2018-01-18T15:34:04.383Z,42.60
2018-01-18T15:36:31.922Z,42.90
2018-01-18T15:38:59.455Z,42.40
2018-01-18T15:41:27.735Z,42.60
2018-01-18T15:43:56.071Z,42.50
2018-01-18T15:46:23.583Z,42.90
2018-01-18T15:48:51.878Z,42.40
2018-01-18T15:51:19.393Z,42.70
2018-01-18T15:53:46.895Z,42.40
2018-01-18T15:56:14.433Z,42.10
2018-01-18T15:58:42.703Z,42.60
2018-01-18T16:01:10.999Z,42.40
2018-01-18T16:03:39.276Z,42.00
2018-01-18T16:06:06.824Z,42.20
2018-01-18T16:08:35.095Z,42.40
2018-01-18T16:11:03.400Z,41.50
2018-01-18T16:13:30.907Z,41.70
2018-01-18T16:15:58.443Z,41.80
2018-01-18T16:18:25.949Z,42.20
2018-01-18T16:20:53.489Z,41.30
2018-01-18T16:23:20.992Z,41.50
2018-01-18T16:25:48.537Z,42.70
2018-01-18T16:28:16.840Z,42.30
2018-01-18T16:30:44.394Z,42.30
2018-01-18T16:33:11.923Z,42.10
2018-01-18T16:35:39.449Z,42.60
2018-01-18T16:38:06.971Z,42.40
2018-01-18T16:40:35.249Z,41.50
2018-01-18T16:43:03.531Z,42.30
2018-01-18T16:45:31.055Z,42.30
2018-01-18T16:47:58.583Z,42.50
2018-01-18T16:50:26.099Z,42.30
2018-01-18T16:52:54.384Z,41.80
2018-01-18T16:55:22.655Z,41.60
2018-01-18T16:57:51.005Z,41.00
2018-01-18T17:00:18.533Z,40.80
2018-01-18T17:02:46.060Z,41.60
2018-01-18T17:05:14.333Z,40.90
2018-01-18T17:07:42.609Z,40.90
2018-01-18T17:10:10.140Z,41.20
2018-01-18T17:12:37.655Z,41.10
2018-01-18T17:15:05.189Z,41.40
2018-01-18T17:17:33.455Z,40.40
2018-01-18T17:20:01.748Z,40.20
2018-01-18T17:22:30.028Z,41.30
2018-01-18T17:24:57.559Z,41.50
2018-01-18T17:27:25.068Z,40.90
2018-01-18T17:29:52.595Z,40.20
2018-01-18T17:32:20.892Z,41.00
2018-01-18T17:34:48.420Z,40.50
2018-01-18T17:37:15.928Z,40.30
2018-01-18T17:39:43.456Z,39.70
2018-01-18T17:42:10.973Z,39.00
2018-01-18T17:44:38.487Z,39.30
2018-01-18T17:47:06.015Z,39.80
2018-01-18T17:49:34.362Z,39.10
2018-01-18T17:52:01.884Z,39.10
2018-01-18T17:54:29.388Z,39.50
2018-01-18T17:56:56.920Z,38.90
2018-01-18T17:59:24.430Z,39.80
2018-01-18T18:01:51.967Z,39.50
2018-01-18T18:04:19.490Z,39.70
2018-01-18T18:06:47.016Z,39.20
2018-01-18T18:09:15.367Z,39.00
2018-01-18T18:11:42.944Z,39.10
2018-01-18T18:14:10.457Z,38.80
2018-01-18T18:16:37.994Z,38.70
2018-01-18T18:19:06.318Z,38.30
2018-01-18T18:21:33.832Z,38.20
2018-01-18T18:24:02.109Z,38.70
2018-01-18T18:26:30.399Z,39.10
2018-01-18T18:28:57.899Z,38.70
2018-01-18T18:31:25.419Z,38.70
2018-01-18T18:33:52.935Z,38.10
2018-01-18T18:36:20.463Z,38.70
2018-01-18T18:38:47.967Z,39.00
2018-01-18T18:41:15.475Z,38.70
2018-01-18T18:43:43.008Z,38.20
2018-01-18T18:46:11.286Z,37.20
2018-01-18T18:48:39.577Z,38.10
2018-01-18T18:51:07.091Z,38.00
2018-01-18T18:53:34.621Z,38.30
2018-01-18T18:56:02.124Z,38.40
2018-01-18T18:58:29.639Z,37.40
2018-01-18T19:00:57.143Z,37.60
2018-01-18T19:03:25.435Z,37.90
2018-01-18T19:05:53.707Z,38.20
2018-01-18T19:08:21.994Z,37.80
2018-01-18T19:10:50.266Z,38.70
2018-01-18T19:13:18.574Z,38.00
2018-01-18T19:15:46.091Z,38.00
2018-01-18T19:18:14.386Z,38.30
2018-01-18T19:20:42.659Z,37.50
2018-01-18T19:23:10.968Z,38.00
2018-01-18T19:25:38.491Z,36.20
2018-01-18T19:28:06.779Z,38.20
2018-01-18T19:30:35.051Z,38.10
2018-01-18T19:33:03.333Z,38.10
2018-01-18T19:35:31.635Z,38.30
2018-01-18T19:37:59.145Z,38.30
2018-01-18T19:40:26.655Z,37.70
2018-01-18T19:42:54.173Z,37.50
2018-01-18T19:45:21.695Z,37.50
2018-01-18T19:47:49.208Z,38.10
2018-01-18T19:50:17.491Z,37.40
2018-01-18T19:52:45.758Z,37.50
2018-01-18T19:55:14.055Z,37.10
2018-01-18T19:57:41.572Z,37.10
2018-01-18T20:00:09.095Z,37.80
2018-01-18T20:02:36.604Z,37.50
2018-01-18T20:05:04.882Z,37.10
2018-01-18T20:07:32.396Z,37.80
2018-01-18T20:09:59.918Z,37.90
2018-01-18T20:12:28.190Z,37.40
2018-01-18T20:14:56.520Z,37.80
2018-01-18T20:17:23.997Z,38.20
2018-01-18T20:19:51.531Z,37.70
2018-01-18T20:22:19.820Z,37.60
2018-01-18T20:24:47.345Z,38.30
2018-01-18T20:27:14.848Z,37.50
2018-01-18T20:29:42.351Z,37.20
2018-01-18T20:32:09.883Z,37.20
2018-01-18T20:34:37.394Z,37.90
2018-01-18T20:37:04.951Z,37.30
2018-01-18T20:39:32.461Z,37.70
2018-01-18T20:42:00.001Z,37.80
2018-01-18T20:44:27.507Z,37.50
2018-01-18T20:46:55.792Z,37.70
2018-01-18T20:49:23.311Z,37.80
2018-01-18T20:51:50.844Z,37.40
2018-01-18T20:54:18.351Z,37.40
2018-01-18T20:56:46.649Z,37.20
2018-01-18T20:59:14.153Z,37.30
2018-01-18T21:01:41.683Z,37.30
2018-01-18T21:04:09.197Z,37.10
2018-01-18T21:06:36.738Z,36.90
2018-01-18T21:09:04.239Z,37.20
2018-01-18T21:11:32.531Z,37.90
2018-01-18T21:14:00.036Z,37.60
2018-01-18T21:16:27.612Z,38.00
2018-01-18T21:18:55.082Z,38.00
2018-01-18T21:21:23.366Z,37.50
2018-01-18T21:23:51.647Z,37.30
2018-01-18T21:26:19.919Z,36.60
2018-01-18T21:28:48.217Z,37.00
2018-01-18T21:31:15.722Z,37.30
2018-01-18T21:33:43.239Z,37.00
2018-01-18T21:36:10.748Z,36.50
2018-01-18T21:38:39.585Z,37.30
2018-01-18T21:41:07.120Z,38.20
2018-01-18T21:43:34.642Z,37.50
2018-01-18T21:46:02.160Z,38.00
2018-01-18T21:48:29.696Z,38.30
2018-01-18T21:50:57.215Z,38.00
2018-01-18T21:53:24.752Z,37.50
2018-01-18T21:55:52.267Z,37.40
2018-01-18T21:58:19.790Z,37.40
2018-01-18T22:00:47.363Z,37.80
2018-01-18T22:03:14.878Z,38.20
2018-01-18T22:05:43.185Z,38.30
2018-01-18T22:08:10.715Z,38.30
2018-01-18T22:10:38.987Z,37.80
2018-01-18T22:13:07.270Z,38.20
2018-01-18T22:15:35.552Z,38.90
2018-01-18T22:18:03.067Z,38.90
2018-01-18T22:20:30.597Z,38.90
2018-01-18T22:22:58.103Z,38.20
2018-01-18T22:25:25.629Z,37.90
2018-01-18T22:27:53.143Z,37.60
2018-01-18T22:30:21.436Z,38.80
2018-01-18T22:32:48.963Z,38.90
2018-01-18T22:35:16.483Z,39.10
2018-01-18T22:37:44.000Z,39.50
2018-01-18T22:40:12.283Z,39.30
2018-01-18T22:42:39.807Z,38.90
2018-01-18T22:45:07.355Z,38.60
2018-01-18T22:47:34.855Z,38.60
2018-01-18T22:50:03.171Z,38.50
2018-01-18T22:52:30.682Z,38.70
2018-01-18T22:54:58.976Z,38.70
2018-01-18T22:57:27.249Z,37.70
2018-01-18T22:59:55.535Z,38.00
2018-01-18T23:02:23.805Z,38.70
2018-01-18T23:04:51.337Z,38.90
2018-01-18T23:07:18.843Z,38.10
2018-01-18T23:09:46.371Z,38.80
2018-01-18T23:12:14.647Z,37.80
2018-01-18T23:14:42.926Z,37.60
2018-01-18T23:17:11.213Z,38.20
2018-01-18T23:19:39.485Z,38.10
2018-01-18T23:22:07.767Z,38.40
2018-01-18T23:24:36.037Z,38.30
2018-01-18T23:27:04.334Z,38.10
2018-01-18T23:29:31.840Z,37.90
2018-01-18T23:31:59.367Z,38.70
2018-01-18T23:34:26.863Z,38.40
2018-01-18T23:36:54.403Z,38.50
2018-01-18T23:39:21.906Z,37.70
2018-01-18T23:41:50.191Z,37.40
2018-01-18T23:44:18.459Z,38.10
2018-01-18T23:46:46.742Z,37.80
2018-01-18T23:49:15.014Z,39.20
2018-01-18T23:51:43.298Z,38.90
2018-01-18T23:54:11.559Z,38.90
2018-01-18T23:56:39.068Z,39.00
2018-01-18T23:59:06.591Z,39.10
